sensor_id;sensor_type;location;lat;lon;timestamp;pressure;altitude;pressure_sealevel;temperature
12918;BMP180;6526;54.312;13.092;2022-12-07T00:01:25;101426.00;;;5.80
12918;BMP180;6526;54.312;13.092;2022-12-07T00:03:54;101414.00;;;5.90
12918;BMP180;6526;54.312;13.092;2022-12-07T00:06:20;101402.00;;;6.00
12918;BMP180;6526;54.312;13.092;2022-12-07T00:08:47;101409.00;;;5.80
12918;BMP180;6526;54.312;13.092;2022-12-07T00:11:16;101404.00;;;5.80
12918;BMP180;6526;54.312;13.092;2022-12-07T00:13:43;101411.00;;;5.80
12918;BMP180;6526;54.312;13.092;2022-12-07T00:16:12;101405.00;;;5.70
12918;BMP180;6526;54.312;13.092;2022-12-07T00:18:38;101401.00;;;5.80
12918;BMP180;6526;54.312;13.092;2022-12-07T00:21:08;101398.00;;;5.80
12918;BMP180;6526;54.312;13.092;2022-12-07T00:23:35;101399.00;;;5.90
12918;BMP180;6526;54.312;13.092;2022-12-07T00:26:15;101403.00;;;5.80
12918;BMP180;6526;54.312;13.092;2022-12-07T00:28:45;101386.00;;;5.70
12918;BMP180;6526;54.312;13.092;2022-12-07T00:31:12;101389.00;;;5.90
12918;BMP180;6526;54.312;13.092;2022-12-07T00:33:38;101388.00;;;5.80
12918;BMP180;6526;54.312;13.092;2022-12-07T00:36:07;101386.00;;;5.80
12918;BMP180;6526;54.312;13.092;2022-12-07T00:38:36;101390.00;;;5.80
12918;BMP180;6526;54.312;13.092;2022-12-07T00:41:04;101376.00;;;5.90
12918;BMP180;6526;54.312;13.092;2022-12-07T00:43:31;101382.00;;;5.90
12918;BMP180;6526;54.312;13.092;2022-12-07T00:45:57;101378.00;;;5.90
12918;BMP180;6526;54.312;13.092;2022-12-07T00:48:24;101376.00;;;5.90
12918;BMP180;6526;54.312;13.092;2022-12-07T00:50:50;101372.00;;;6.00
12918;BMP180;6526;54.312;13.092;2022-12-07T00:53:17;101358.00;;;6.00
12918;BMP180;6526;54.312;13.092;2022-12-07T00:55:43;101369.00;;;6.00
12918;BMP180;6526;54.312;13.092;2022-12-07T00:58:09;101348.00;;;5.90
12918;BMP180;6526;54.312;13.092;2022-12-07T01:00:37;101360.00;;;5.90
12918;BMP180;6526;54.312;13.092;2022-12-07T01:03:08;101352.00;;;5.90
12918;BMP180;6526;54.312;13.092;2022-12-07T01:05:34;101347.00;;;5.90
12918;BMP180;6526;54.312;13.092;2022-12-07T01:08:01;101352.00;;;5.80
12918;BMP180;6526;54.312;13.092;2022-12-07T01:10:27;101356.00;;;5.90
12918;BMP180;6526;54.312;13.092;2022-12-07T01:12:54;101356.00;;;5.90
12918;BMP180;6526;54.312;13.092;2022-12-07T01:15:20;101340.00;;;5.90
12918;BMP180;6526;54.312;13.092;2022-12-07T01:17:46;101343.00;;;5.90
12918;BMP180;6526;54.312;13.092;2022-12-07T01:20:13;101338.00;;;5.90
12918;BMP180;6526;54.312;13.092;2022-12-07T01:22:43;101334.00;;;5.90
12918;BMP180;6526;54.312;13.092;2022-12-07T01:25:10;101329.00;;;5.90
12918;BMP180;6526;54.312;13.092;2022-12-07T01:27:36;101334.00;;;5.90
12918;BMP180;6526;54.312;13.092;2022-12-07T01:30:04;101322.00;;;5.80
12918;BMP180;6526;54.312;13.092;2022-12-07T01:32:31;101329.00;;;5.80
12918;BMP180;6526;54.312;13.092;2022-12-07T01:34:57;101320.00;;;5.80
12918;BMP180;6526;54.312;13.092;2022-12-07T01:37:23;101322.00;;;5.80
12918;BMP180;6526;54.312;13.092;2022-12-07T01:39:52;101309.00;;;5.80
12918;BMP180;6526;54.312;13.092;2022-12-07T01:42:19;101316.00;;;5.70
12918;BMP180;6526;54.312;13.092;2022-12-07T01:47:46;101295.00;;;5.80
12918;BMP180;6526;54.312;13.092;2022-12-07T01:50:14;101300.00;;;5.70
12918;BMP180;6526;54.312;13.092;2022-12-07T01:52:40;101310.00;;;5.70
12918;BMP180;6526;54.312;13.092;2022-12-07T01:55:13;101299.00;;;5.70
12918;BMP180;6526;54.312;13.092;2022-12-07T01:57:43;101297.00;;;5.70
12918;BMP180;6526;54.312;13.092;2022-12-07T02:00:11;101295.00;;;5.60
12918;BMP180;6526;54.312;13.092;2022-12-07T02:05:21;101284.00;;;5.70
12918;BMP180;6526;54.312;13.092;2022-12-07T02:07:48;101291.00;;;5.70
12918;BMP180;6526;54.312;13.092;2022-12-07T02:10:22;101282.00;;;5.80
12918;BMP180;6526;54.312;13.092;2022-12-07T02:15:44;101285.00;;;5.80
12918;BMP180;6526;54.312;13.092;2022-12-07T02:18:24;101276.00;;;5.80
12918;BMP180;6526;54.312;13.092;2022-12-07T02:21:06;101271.00;;;5.80
12918;BMP180;6526;54.312;13.092;2022-12-07T02:23:41;101267.00;;;5.80
12918;BMP180;6526;54.312;13.092;2022-12-07T02:29:06;101264.00;;;5.70
12918;BMP180;6526;54.312;13.092;2022-12-07T02:31:37;101271.00;;;5.80
12918;BMP180;6526;54.312;13.092;2022-12-07T02:34:25;101273.00;;;5.70
12918;BMP180;6526;54.312;13.092;2022-12-07T02:37:00;101262.00;;;5.70
12918;BMP180;6526;54.312;13.092;2022-12-07T02:39:43;101250.00;;;5.70
12918;BMP180;6526;54.312;13.092;2022-12-07T02:42:16;101249.00;;;5.60
12918;BMP180;6526;54.312;13.092;2022-12-07T02:44:44;101247.00;;;5.50
12918;BMP180;6526;54.312;13.092;2022-12-07T02:47:13;101242.00;;;5.50
12918;BMP180;6526;54.312;13.092;2022-12-07T02:49:41;101238.00;;;5.50
12918;BMP180;6526;54.312;13.092;2022-12-07T02:52:07;101249.00;;;5.60
12918;BMP180;6526;54.312;13.092;2022-12-07T02:54:33;101228.00;;;5.50
12918;BMP180;6526;54.312;13.092;2022-12-07T03:00:03;101241.00;;;5.40
12918;BMP180;6526;54.312;13.092;2022-12-07T03:05:27;101244.00;;;5.20
12918;BMP180;6526;54.312;13.092;2022-12-07T03:10:58;101239.00;;;5.00
12918;BMP180;6526;54.312;13.092;2022-12-07T03:13:30;101226.00;;;5.00
12918;BMP180;6526;54.312;13.092;2022-12-07T03:16:16;101229.00;;;5.00
12918;BMP180;6526;54.312;13.092;2022-12-07T03:19:03;101230.00;;;5.10
12918;BMP180;6526;54.312;13.092;2022-12-07T03:21:41;101220.00;;;5.30
12918;BMP180;6526;54.312;13.092;2022-12-07T03:24:14;101217.00;;;5.30
12918;BMP180;6526;54.312;13.092;2022-12-07T03:26:48;101220.00;;;5.20
12918;BMP180;6526;54.312;13.092;2022-12-07T03:29:44;101226.00;;;5.30
12918;BMP180;6526;54.312;13.092;2022-12-07T03:32:25;101216.00;;;5.20
12918;BMP180;6526;54.312;13.092;2022-12-07T03:35:03;101216.00;;;5.00
12918;BMP180;6526;54.312;13.092;2022-12-07T03:37:56;101220.00;;;5.10
12918;BMP180;6526;54.312;13.092;2022-12-07T03:40:48;101206.00;;;5.10
12918;BMP180;6526;54.312;13.092;2022-12-07T03:43:16;101202.00;;;5.10
12918;BMP180;6526;54.312;13.092;2022-12-07T03:45:56;101209.00;;;5.20
12918;BMP180;6526;54.312;13.092;2022-12-07T03:51:24;101190.00;;;5.10
12918;BMP180;6526;54.312;13.092;2022-12-07T03:54:09;101185.00;;;5.00
12918;BMP180;6526;54.312;13.092;2022-12-07T03:56:37;101188.00;;;5.00
12918;BMP180;6526;54.312;13.092;2022-12-07T03:59:03;101188.00;;;5.00
12918;BMP180;6526;54.312;13.092;2022-12-07T04:01:29;101175.00;;;5.10
12918;BMP180;6526;54.312;13.092;2022-12-07T04:03:55;101177.00;;;5.00
12918;BMP180;6526;54.312;13.092;2022-12-07T04:06:21;101174.00;;;5.00
12918;BMP180;6526;54.312;13.092;2022-12-07T04:08:47;101170.00;;;5.00
12918;BMP180;6526;54.312;13.092;2022-12-07T04:11:13;101164.00;;;5.00
12918;BMP180;6526;54.312;13.092;2022-12-07T04:13:39;101162.00;;;5.00
12918;BMP180;6526;54.312;13.092;2022-12-07T04:16:24;101159.00;;;5.00
12918;BMP180;6526;54.312;13.092;2022-12-07T04:18:50;101156.00;;;4.90
12918;BMP180;6526;54.312;13.092;2022-12-07T04:21:16;101139.00;;;4.90
12918;BMP180;6526;54.312;13.092;2022-12-07T04:23:42;101144.00;;;4.90
12918;BMP180;6526;54.312;13.092;2022-12-07T04:26:08;101138.00;;;4.90
12918;BMP180;6526;54.312;13.092;2022-12-07T04:28:34;101139.00;;;4.80
12918;BMP180;6526;54.312;13.092;2022-12-07T04:31:00;101139.00;;;4.80
12918;BMP180;6526;54.312;13.092;2022-12-07T04:33:26;101130.00;;;4.80
12918;BMP180;6526;54.312;13.092;2022-12-07T04:35:52;101132.00;;;4.70
12918;BMP180;6526;54.312;13.092;2022-12-07T04:38:18;101127.00;;;4.80
12918;BMP180;6526;54.312;13.092;2022-12-07T04:40:44;101130.00;;;4.70
12918;BMP180;6526;54.312;13.092;2022-12-07T04:43:10;101131.00;;;4.70
12918;BMP180;6526;54.312;13.092;2022-12-07T04:45:36;101123.00;;;4.60
12918;BMP180;6526;54.312;13.092;2022-12-07T04:48:02;101123.00;;;4.70
12918;BMP180;6526;54.312;13.092;2022-12-07T04:50:28;101121.00;;;4.80
12918;BMP180;6526;54.312;13.092;2022-12-07T04:52:54;101117.00;;;4.70
12918;BMP180;6526;54.312;13.092;2022-12-07T04:55:20;101113.00;;;4.60
12918;BMP180;6526;54.312;13.092;2022-12-07T04:57:46;101104.00;;;4.80
12918;BMP180;6526;54.312;13.092;2022-12-07T05:00:12;101124.00;;;4.80
12918;BMP180;6526;54.312;13.092;2022-12-07T05:02:38;101129.00;;;4.60
12918;BMP180;6526;54.312;13.092;2022-12-07T05:05:04;101128.00;;;4.50
12918;BMP180;6526;54.312;13.092;2022-12-07T05:07:30;101120.00;;;4.40
12918;BMP180;6526;54.312;13.092;2022-12-07T05:09:56;101122.00;;;4.50
12918;BMP180;6526;54.312;13.092;2022-12-07T05:12:22;101122.00;;;4.50
12918;BMP180;6526;54.312;13.092;2022-12-07T05:14:48;101116.00;;;4.40
12918;BMP180;6526;54.312;13.092;2022-12-07T05:17:14;101125.00;;;4.30
12918;BMP180;6526;54.312;13.092;2022-12-07T05:19:40;101124.00;;;4.40
12918;BMP180;6526;54.312;13.092;2022-12-07T05:22:06;101119.00;;;4.40
12918;BMP180;6526;54.312;13.092;2022-12-07T05:24:32;101106.00;;;4.30
12918;BMP180;6526;54.312;13.092;2022-12-07T05:26:58;101110.00;;;4.50
12918;BMP180;6526;54.312;13.092;2022-12-07T05:29:24;101105.00;;;4.50
12918;BMP180;6526;54.312;13.092;2022-12-07T05:31:50;101108.00;;;4.50
12918;BMP180;6526;54.312;13.092;2022-12-07T05:34:16;101100.00;;;4.40
12918;BMP180;6526;54.312;13.092;2022-12-07T05:36:42;101099.00;;;4.40
12918;BMP180;6526;54.312;13.092;2022-12-07T05:39:10;101094.00;;;4.50
12918;BMP180;6526;54.312;13.092;2022-12-07T05:41:36;101094.00;;;4.60
12918;BMP180;6526;54.312;13.092;2022-12-07T05:44:21;101088.00;;;4.50
12918;BMP180;6526;54.312;13.092;2022-12-07T05:46:47;101093.00;;;4.40
12918;BMP180;6526;54.312;13.092;2022-12-07T05:49:13;101095.00;;;4.40
12918;BMP180;6526;54.312;13.092;2022-12-07T05:51:39;101089.00;;;4.40
12918;BMP180;6526;54.312;13.092;2022-12-07T05:54:06;101095.00;;;4.40
12918;BMP180;6526;54.312;13.092;2022-12-07T05:56:32;101092.00;;;4.30
12918;BMP180;6526;54.312;13.092;2022-12-07T05:58:58;101090.00;;;4.40
12918;BMP180;6526;54.312;13.092;2022-12-07T06:01:42;101087.00;;;4.50
12918;BMP180;6526;54.312;13.092;2022-12-07T06:04:08;101089.00;;;4.50
12918;BMP180;6526;54.312;13.092;2022-12-07T06:06:34;101073.00;;;4.50
12918;BMP180;6526;54.312;13.092;2022-12-07T06:09:01;101079.00;;;4.50
12918;BMP180;6526;54.312;13.092;2022-12-07T06:11:27;101080.00;;;4.50
12918;BMP180;6526;54.312;13.092;2022-12-07T06:14:11;101078.00;;;4.50
12918;BMP180;6526;54.312;13.092;2022-12-07T06:16:37;101086.00;;;4.50
12918;BMP180;6526;54.312;13.092;2022-12-07T06:19:03;101077.00;;;4.50
12918;BMP180;6526;54.312;13.092;2022-12-07T06:21:30;101070.00;;;4.60
12918;BMP180;6526;54.312;13.092;2022-12-07T06:23:56;101083.00;;;4.70
12918;BMP180;6526;54.312;13.092;2022-12-07T06:26:22;101072.00;;;4.80
12918;BMP180;6526;54.312;13.092;2022-12-07T06:28:48;101062.00;;;4.70
12918;BMP180;6526;54.312;13.092;2022-12-07T06:31:14;101062.00;;;4.70
12918;BMP180;6526;54.312;13.092;2022-12-07T06:33:41;101078.00;;;4.70
12918;BMP180;6526;54.312;13.092;2022-12-07T06:36:08;101072.00;;;4.70
12918;BMP180;6526;54.312;13.092;2022-12-07T06:38:34;101071.00;;;4.70
12918;BMP180;6526;54.312;13.092;2022-12-07T06:41:00;101075.00;;;4.70
12918;BMP180;6526;54.312;13.092;2022-12-07T06:43:26;101075.00;;;4.70
12918;BMP180;6526;54.312;13.092;2022-12-07T06:45:53;101074.00;;;4.80
12918;BMP180;6526;54.312;13.092;2022-12-07T06:48:19;101064.00;;;4.80
12918;BMP180;6526;54.312;13.092;2022-12-07T06:50:46;101064.00;;;4.80
12918;BMP180;6526;54.312;13.092;2022-12-07T06:53:12;101070.00;;;4.90
12918;BMP180;6526;54.312;13.092;2022-12-07T06:55:38;101072.00;;;4.90
12918;BMP180;6526;54.312;13.092;2022-12-07T06:58:05;101076.00;;;4.90
12918;BMP180;6526;54.312;13.092;2022-12-07T07:00:31;101079.00;;;4.90
12918;BMP180;6526;54.312;13.092;2022-12-07T07:02:57;101071.00;;;4.80
12918;BMP180;6526;54.312;13.092;2022-12-07T07:05:23;101051.00;;;4.80
12918;BMP180;6526;54.312;13.092;2022-12-07T07:07:49;101075.00;;;4.80
12918;BMP180;6526;54.312;13.092;2022-12-07T07:10:16;101066.00;;;4.80
12918;BMP180;6526;54.312;13.092;2022-12-07T07:12:42;101073.00;;;4.90
12918;BMP180;6526;54.312;13.092;2022-12-07T07:15:08;101067.00;;;5.00
12918;BMP180;6526;54.312;13.092;2022-12-07T07:17:35;101066.00;;;5.10
12918;BMP180;6526;54.312;13.092;2022-12-07T07:20:01;101069.00;;;5.00
12918;BMP180;6526;54.312;13.092;2022-12-07T07:22:27;101056.00;;;4.90
12918;BMP180;6526;54.312;13.092;2022-12-07T07:24:53;101065.00;;;4.80
12918;BMP180;6526;54.312;13.092;2022-12-07T07:27:19;101059.00;;;4.80
12918;BMP180;6526;54.312;13.092;2022-12-07T07:29:45;101061.00;;;4.80
12918;BMP180;6526;54.312;13.092;2022-12-07T07:32:11;101072.00;;;4.80
12918;BMP180;6526;54.312;13.092;2022-12-07T07:34:38;101078.00;;;4.80
12918;BMP180;6526;54.312;13.092;2022-12-07T07:37:04;101073.00;;;4.90
12918;BMP180;6526;54.312;13.092;2022-12-07T07:39:30;101069.00;;;4.90
12918;BMP180;6526;54.312;13.092;2022-12-07T07:41:56;101070.00;;;5.00
12918;BMP180;6526;54.312;13.092;2022-12-07T07:44:22;101067.00;;;5.00
12918;BMP180;6526;54.312;13.092;2022-12-07T07:46:48;101069.00;;;5.00
12918;BMP180;6526;54.312;13.092;2022-12-07T07:49:13;101073.00;;;5.00
12918;BMP180;6526;54.312;13.092;2022-12-07T07:51:39;101075.00;;;5.00
12918;BMP180;6526;54.312;13.092;2022-12-07T07:54:06;101081.00;;;5.10
12918;BMP180;6526;54.312;13.092;2022-12-07T07:56:32;101075.00;;;5.10
12918;BMP180;6526;54.312;13.092;2022-12-07T07:58:58;101073.00;;;5.10
12918;BMP180;6526;54.312;13.092;2022-12-07T08:01:24;101069.00;;;5.10
12918;BMP180;6526;54.312;13.092;2022-12-07T08:03:50;101067.00;;;5.00
12918;BMP180;6526;54.312;13.092;2022-12-07T08:06:16;101065.00;;;5.00
12918;BMP180;6526;54.312;13.092;2022-12-07T08:08:42;101075.00;;;5.00
12918;BMP180;6526;54.312;13.092;2022-12-07T08:11:09;101071.00;;;5.20
12918;BMP180;6526;54.312;13.092;2022-12-07T08:13:36;101061.00;;;5.10
12918;BMP180;6526;54.312;13.092;2022-12-07T08:16:07;101071.00;;;5.10
12918;BMP180;6526;54.312;13.092;2022-12-07T08:18:38;101066.00;;;5.00
12918;BMP180;6526;54.312;13.092;2022-12-07T08:21:06;101061.00;;;5.00
12918;BMP180;6526;54.312;13.092;2022-12-07T08:23:33;101051.00;;;5.20
12918;BMP180;6526;54.312;13.092;2022-12-07T08:26:04;101066.00;;;5.20
12918;BMP180;6526;54.312;13.092;2022-12-07T08:28:31;101057.00;;;5.10
12918;BMP180;6526;54.312;13.092;2022-12-07T08:31:05;101047.00;;;5.20
12918;BMP180;6526;54.312;13.092;2022-12-07T08:33:32;101051.00;;;5.20
12918;BMP180;6526;54.312;13.092;2022-12-07T08:36:05;101054.00;;;5.20
12918;BMP180;6526;54.312;13.092;2022-12-07T08:38:33;101042.00;;;5.20
12918;BMP180;6526;54.312;13.092;2022-12-07T08:40:59;101049.00;;;5.20
12918;BMP180;6526;54.312;13.092;2022-12-07T08:43:26;101046.00;;;5.10
12918;BMP180;6526;54.312;13.092;2022-12-07T08:48:26;101049.00;;;5.10
12918;BMP180;6526;54.312;13.092;2022-12-07T08:50:52;101050.00;;;5.10
12918;BMP180;6526;54.312;13.092;2022-12-07T08:53:18;101039.00;;;5.10
12918;BMP180;6526;54.312;13.092;2022-12-07T08:55:45;101053.00;;;5.20
12918;BMP180;6526;54.312;13.092;2022-12-07T08:58:12;101037.00;;;5.30
12918;BMP180;6526;54.312;13.092;2022-12-07T09:00:38;101045.00;;;5.20
12918;BMP180;6526;54.312;13.092;2022-12-07T09:03:04;101044.00;;;5.30
12918;BMP180;6526;54.312;13.092;2022-12-07T09:05:31;101051.00;;;5.50
12918;BMP180;6526;54.312;13.092;2022-12-07T09:08:00;101038.00;;;5.50
12918;BMP180;6526;54.312;13.092;2022-12-07T09:10:27;101048.00;;;5.50
12918;BMP180;6526;54.312;13.092;2022-12-07T09:12:53;101045.00;;;5.40
12918;BMP180;6526;54.312;13.092;2022-12-07T09:15:19;101041.00;;;5.50
12918;BMP180;6526;54.312;13.092;2022-12-07T09:17:45;101039.00;;;5.50
12918;BMP180;6526;54.312;13.092;2022-12-07T09:20:12;101034.00;;;5.40
12918;BMP180;6526;54.312;13.092;2022-12-07T09:22:38;101034.00;;;5.50
12918;BMP180;6526;54.312;13.092;2022-12-07T09:25:04;101036.00;;;5.60
12918;BMP180;6526;54.312;13.092;2022-12-07T09:27:31;101037.00;;;5.60
12918;BMP180;6526;54.312;13.092;2022-12-07T09:29:57;101034.00;;;5.50
12918;BMP180;6526;54.312;13.092;2022-12-07T09:32:23;101024.00;;;5.50
12918;BMP180;6526;54.312;13.092;2022-12-07T09:34:49;101028.00;;;5.50
12918;BMP180;6526;54.312;13.092;2022-12-07T09:37:15;101028.00;;;5.70
12918;BMP180;6526;54.312;13.092;2022-12-07T09:39:41;101017.00;;;5.60
12918;BMP180;6526;54.312;13.092;2022-12-07T09:42:08;101009.00;;;5.50
12918;BMP180;6526;54.312;13.092;2022-12-07T09:44:36;101015.00;;;5.50
12918;BMP180;6526;54.312;13.092;2022-12-07T09:47:02;101012.00;;;5.70
12918;BMP180;6526;54.312;13.092;2022-12-07T09:49:31;101009.00;;;5.80
12918;BMP180;6526;54.312;13.092;2022-12-07T09:52:27;101015.00;;;5.80
12918;BMP180;6526;54.312;13.092;2022-12-07T09:54:53;101010.00;;;6.00
12918;BMP180;6526;54.312;13.092;2022-12-07T09:57:31;101000.00;;;5.90
12918;BMP180;6526;54.312;13.092;2022-12-07T10:00:03;100999.00;;;6.00
12918;BMP180;6526;54.312;13.092;2022-12-07T10:02:47;100997.00;;;5.90
12918;BMP180;6526;54.312;13.092;2022-12-07T10:05:28;101001.00;;;6.00
12918;BMP180;6526;54.312;13.092;2022-12-07T10:07:55;100990.00;;;6.00
12918;BMP180;6526;54.312;13.092;2022-12-07T10:10:32;100986.00;;;6.10
12918;BMP180;6526;54.312;13.092;2022-12-07T10:13:05;100984.00;;;6.10
12918;BMP180;6526;54.312;13.092;2022-12-07T10:15:54;100992.00;;;6.20
12918;BMP180;6526;54.312;13.092;2022-12-07T10:18:37;100981.00;;;6.30
12918;BMP180;6526;54.312;13.092;2022-12-07T10:21:18;100966.00;;;6.50
12918;BMP180;6526;54.312;13.092;2022-12-07T10:26:55;100974.00;;;6.80
12918;BMP180;6526;54.312;13.092;2022-12-07T10:29:23;100976.00;;;6.90
12918;BMP180;6526;54.312;13.092;2022-12-07T10:31:59;100972.00;;;7.00
12918;BMP180;6526;54.312;13.092;2022-12-07T10:34:31;100978.00;;;7.00
12918;BMP180;6526;54.312;13.092;2022-12-07T10:39:42;100980.00;;;7.10
12918;BMP180;6526;54.312;13.092;2022-12-07T10:42:23;100973.00;;;7.00
12918;BMP180;6526;54.312;13.092;2022-12-07T10:45:07;100979.00;;;6.90
12918;BMP180;6526;54.312;13.092;2022-12-07T10:50:47;100987.00;;;6.60
12918;BMP180;6526;54.312;13.092;2022-12-07T10:53:37;100980.00;;;6.40
12918;BMP180;6526;54.312;13.092;2022-12-07T10:59:12;100973.00;;;5.90
12918;BMP180;6526;54.312;13.092;2022-12-07T11:01:57;100976.00;;;6.00
12918;BMP180;6526;54.312;13.092;2022-12-07T11:04:33;100963.00;;;6.00
12918;BMP180;6526;54.312;13.092;2022-12-07T11:07:27;100973.00;;;5.90
12918;BMP180;6526;54.312;13.092;2022-12-07T11:10:05;100977.00;;;5.90
12918;BMP180;6526;54.312;13.092;2022-12-07T11:17:52;100970.00;;;5.70
12918;BMP180;6526;54.312;13.092;2022-12-07T11:20:37;100966.00;;;5.70
12918;BMP180;6526;54.312;13.092;2022-12-07T11:23:29;100967.00;;;5.70
12918;BMP180;6526;54.312;13.092;2022-12-07T11:26:16;100952.00;;;5.90
12918;BMP180;6526;54.312;13.092;2022-12-07T11:29:05;100956.00;;;6.10
12918;BMP180;6526;54.312;13.092;2022-12-07T11:31:54;100947.00;;;6.20
12918;BMP180;6526;54.312;13.092;2022-12-07T11:37:20;100942.00;;;6.30
12918;BMP180;6526;54.312;13.092;2022-12-07T11:39:52;100925.00;;;6.20
12918;BMP180;6526;54.312;13.092;2022-12-07T11:42:25;100932.00;;;6.40
12918;BMP180;6526;54.312;13.092;2022-12-07T11:45:19;100933.00;;;6.40
12918;BMP180;6526;54.312;13.092;2022-12-07T11:48:21;100917.00;;;6.50
12918;BMP180;6526;54.312;13.092;2022-12-07T11:50:59;100917.00;;;6.40
12918;BMP180;6526;54.312;13.092;2022-12-07T11:53:37;100924.00;;;6.40
12918;BMP180;6526;54.312;13.092;2022-12-07T11:56:11;100920.00;;;6.40
12918;BMP180;6526;54.312;13.092;2022-12-07T11:58:57;100917.00;;;6.50
12918;BMP180;6526;54.312;13.092;2022-12-07T12:01:39;100922.00;;;6.60
12918;BMP180;6526;54.312;13.092;2022-12-07T12:06:38;100916.00;;;6.80
12918;BMP180;6526;54.312;13.092;2022-12-07T12:09:11;100903.00;;;6.90
12918;BMP180;6526;54.312;13.092;2022-12-07T12:17:29;100921.00;;;7.00
12918;BMP180;6526;54.312;13.092;2022-12-07T12:20:23;100897.00;;;6.90
12918;BMP180;6526;54.312;13.092;2022-12-07T12:23:11;100902.00;;;6.90
12918;BMP180;6526;54.312;13.092;2022-12-07T12:25:40;100897.00;;;6.90
12918;BMP180;6526;54.312;13.092;2022-12-07T12:28:15;100894.00;;;6.90
12918;BMP180;6526;54.312;13.092;2022-12-07T12:30:44;100903.00;;;6.80
12918;BMP180;6526;54.312;13.092;2022-12-07T12:33:14;100901.00;;;6.90
12918;BMP180;6526;54.312;13.092;2022-12-07T12:35:43;100896.00;;;7.00
12918;BMP180;6526;54.312;13.092;2022-12-07T12:38:32;100893.00;;;7.00
12918;BMP180;6526;54.312;13.092;2022-12-07T12:41:00;100903.00;;;6.90
12918;BMP180;6526;54.312;13.092;2022-12-07T12:43:43;100901.00;;;6.80
12918;BMP180;6526;54.312;13.092;2022-12-07T12:51:42;100893.00;;;6.40
12918;BMP180;6526;54.312;13.092;2022-12-07T12:57:05;100896.00;;;6.30
12918;BMP180;6526;54.312;13.092;2022-12-07T13:05:01;100899.00;;;6.40
12918;BMP180;6526;54.312;13.092;2022-12-07T13:18:43;100892.00;;;6.50
12918;BMP180;6526;54.312;13.092;2022-12-07T13:31:51;100881.00;;;6.40
12918;BMP180;6526;54.312;13.092;2022-12-07T13:34:47;100894.00;;;6.20
12918;BMP180;6526;54.312;13.092;2022-12-07T13:37:16;100891.00;;;6.20
12918;BMP180;6526;54.312;13.092;2022-12-07T13:39:51;100888.00;;;6.10
12918;BMP180;6526;54.312;13.092;2022-12-07T13:42:31;100882.00;;;6.10
12918;BMP180;6526;54.312;13.092;2022-12-07T13:44:59;100889.00;;;6.10
12918;BMP180;6526;54.312;13.092;2022-12-07T13:47:43;100887.00;;;6.10
12918;BMP180;6526;54.312;13.092;2022-12-07T13:50:30;100883.00;;;6.00
12918;BMP180;6526;54.312;13.092;2022-12-07T13:52:58;100891.00;;;5.80
12918;BMP180;6526;54.312;13.092;2022-12-07T13:55:24;100894.00;;;5.80
12918;BMP180;6526;54.312;13.092;2022-12-07T13:57:53;100897.00;;;5.80
12918;BMP180;6526;54.312;13.092;2022-12-07T14:00:25;100896.00;;;5.70
12918;BMP180;6526;54.312;13.092;2022-12-07T14:03:41;100888.00;;;5.60
12918;BMP180;6526;54.312;13.092;2022-12-07T14:05:44;100902.00;;;5.70
12918;BMP180;6526;54.312;13.092;2022-12-07T14:13:37;100890.00;;;5.70
12918;BMP180;6526;54.312;13.092;2022-12-07T14:16:24;100886.00;;;5.70
12918;BMP180;6526;54.312;13.092;2022-12-07T14:18:51;100884.00;;;5.60
12918;BMP180;6526;54.312;13.092;2022-12-07T14:21:19;100886.00;;;5.60
12918;BMP180;6526;54.312;13.092;2022-12-07T14:24:07;100882.00;;;5.70
12918;BMP180;6526;54.312;13.092;2022-12-07T14:26:33;100874.00;;;5.80
12918;BMP180;6526;54.312;13.092;2022-12-07T14:31:51;100880.00;;;5.70
12918;BMP180;6526;54.312;13.092;2022-12-07T14:34:19;100871.00;;;5.60
12918;BMP180;6526;54.312;13.092;2022-12-07T14:36:45;100883.00;;;5.50
12918;BMP180;6526;54.312;13.092;2022-12-07T14:39:11;100885.00;;;5.60
12918;BMP180;6526;54.312;13.092;2022-12-07T14:41:37;100882.00;;;5.50
12918;BMP180;6526;54.312;13.092;2022-12-07T14:44:20;100882.00;;;5.50
12918;BMP180;6526;54.312;13.092;2022-12-07T14:46:47;100892.00;;;5.50
12918;BMP180;6526;54.312;13.092;2022-12-07T14:49:13;100892.00;;;5.60
12918;BMP180;6526;54.312;13.092;2022-12-07T14:51:40;100894.00;;;5.60
12918;BMP180;6526;54.312;13.092;2022-12-07T14:54:16;100889.00;;;5.60
12918;BMP180;6526;54.312;13.092;2022-12-07T14:56:43;100895.00;;;5.60
12918;BMP180;6526;54.312;13.092;2022-12-07T14:59:10;100885.00;;;5.50
12918;BMP180;6526;54.312;13.092;2022-12-07T15:01:37;100894.00;;;5.40
12918;BMP180;6526;54.312;13.092;2022-12-07T15:04:03;100890.00;;;5.40
12918;BMP180;6526;54.312;13.092;2022-12-07T15:06:29;100896.00;;;5.30
12918;BMP180;6526;54.312;13.092;2022-12-07T15:08:55;100891.00;;;5.40
12918;BMP180;6526;54.312;13.092;2022-12-07T15:11:21;100898.00;;;5.30
12918;BMP180;6526;54.312;13.092;2022-12-07T15:13:47;100892.00;;;5.20
12918;BMP180;6526;54.312;13.092;2022-12-07T15:16:32;100894.00;;;5.20
12918;BMP180;6526;54.312;13.092;2022-12-07T15:18:58;100895.00;;;5.10
12918;BMP180;6526;54.312;13.092;2022-12-07T15:21:24;100888.00;;;5.10
12918;BMP180;6526;54.312;13.092;2022-12-07T15:23:50;100889.00;;;5.00
12918;BMP180;6526;54.312;13.092;2022-12-07T15:26:16;100900.00;;;5.00
12918;BMP180;6526;54.312;13.092;2022-12-07T15:28:42;100894.00;;;4.90
12918;BMP180;6526;54.312;13.092;2022-12-07T15:31:16;100900.00;;;4.90
12918;BMP180;6526;54.312;13.092;2022-12-07T15:33:43;100901.00;;;4.90
12918;BMP180;6526;54.312;13.092;2022-12-07T15:36:18;100898.00;;;4.90
12918;BMP180;6526;54.312;13.092;2022-12-07T15:38:44;100898.00;;;4.90
12918;BMP180;6526;54.312;13.092;2022-12-07T15:41:10;100895.00;;;4.80
12918;BMP180;6526;54.312;13.092;2022-12-07T15:43:36;100900.00;;;4.80
12918;BMP180;6526;54.312;13.092;2022-12-07T15:46:21;100896.00;;;4.70
12918;BMP180;6526;54.312;13.092;2022-12-07T15:48:47;100899.00;;;4.70
12918;BMP180;6526;54.312;13.092;2022-12-07T15:51:13;100895.00;;;4.70
12918;BMP180;6526;54.312;13.092;2022-12-07T15:53:40;100895.00;;;4.70
12918;BMP180;6526;54.312;13.092;2022-12-07T15:56:07;100893.00;;;4.70
12918;BMP180;6526;54.312;13.092;2022-12-07T15:58:34;100901.00;;;4.80
12918;BMP180;6526;54.312;13.092;2022-12-07T16:01:00;100896.00;;;4.70
12918;BMP180;6526;54.312;13.092;2022-12-07T16:03:27;100891.00;;;4.70
12918;BMP180;6526;54.312;13.092;2022-12-07T16:05:53;100886.00;;;4.80